WetterOnline ( https://www.wetteronline.de )

Wetter aktuell Gera

Aktuelles Wetter: Gera/Leumnitz (311m)

6-stündlich | Neueste Meldungen
Ortszeit Temperatur Wetter
Mi, 16.06. 20:00 25.8° C wolkenlos
Mi, 16.06. 14:00 25.7° C leicht bewölkt
Mi, 16.06. 8:00 18.4° C wolkig
Mi, 16.06. 2:00 17.4° C wolkig
Di, 15.06. 20:00 22.4° C bewölkt
Di, 15.06. 14:00 25.9° C wolkig
Di, 15.06. 8:00 16.2° C leicht bewölkt
Di, 15.06. 2:00 13.0° C wolkig
Ortszeit Temperatur Wetter
Mi, 16.06. 22:00 23.1° C fast wolkenlos
Mi, 16.06. 21:50 23.1° C fast wolkenlos
Mi, 16.06. 21:40 23.2° C fast wolkenlos
Mi, 16.06. 21:30 23.6° C fast wolkenlos
Mi, 16.06. 21:20 23.6° C fast wolkenlos
Mi, 16.06. 21:10 23.8° C leicht bewölkt
Mi, 16.06. 21:00 24.4° C wolkenlos
Mi, 16.06. 20:30 25.1° C fast wolkenlos
Mi, 16.06. 20:00 25.8° C wolkenlos
Mi, 16.06. 19:30 26.2° C wolkenlos
Mi, 16.06. 19:00 26.6° C leicht bewölkt
Ortszeit Relative Feuchte Sichtweite
Mi, 16.06. 20:00 63% 40 km
Mi, 16.06. 14:00 58% 30 km
Mi, 16.06. 8:00 82% 16 km
Mi, 16.06. 2:00 85% 25 km
Di, 15.06. 20:00 62% 30 km
Di, 15.06. 14:00 51% 60 km
Di, 15.06. 8:00 84% 30 km
Di, 15.06. 2:00 91% 35 km
Ortszeit Relative Feuchte Sichtweite
Mi, 16.06. 22:00 70% 35 km
Mi, 16.06. 21:50 70% -
Mi, 16.06. 21:40 70% -
Mi, 16.06. 21:30 69% 35 km
Mi, 16.06. 21:20 69% -
Mi, 16.06. 21:10 68% -
Mi, 16.06. 21:00 67% 35 km
Mi, 16.06. 20:30 65% 40 km
Mi, 16.06. 20:00 63% 40 km
Mi, 16.06. 19:30 62% 35 km
Mi, 16.06. 19:00 62% 40 km
Ortszeit Niederschlagsmenge Niederschlagsart
Mi, 16.06. 20:00 0.0 l/m2 in 12 Std. -
Mi, 16.06. 14:00 0.0 l/m2 in 6 Std. -
Mi, 16.06. 8:00 0.0 l/m2 in 12 Std. -
Mi, 16.06. 2:00 0.0 l/m2 in 6 Std. -
Di, 15.06. 20:00 0.0 l/m2 in 12 Std. -
Di, 15.06. 14:00 0.0 l/m2 in 6 Std. -
Di, 15.06. 8:00 0.0 l/m2 in 12 Std. -
Di, 15.06. 2:00 0.0 l/m2 in 6 Std. -
Ortszeit Niederschlagsmenge Niederschlagsart
Mi, 16.06. 22:00 0.0 l/m2 in 1 Std. -
Mi, 16.06. 21:50 keine Meldung -
Mi, 16.06. 21:40 keine Meldung -
Mi, 16.06. 21:30 0.0 l/m2 in 1 Std. -
Mi, 16.06. 21:20 keine Meldung -
Mi, 16.06. 21:10 keine Meldung -
Mi, 16.06. 21:00 0.0 l/m2 in 1 Std. -
Mi, 16.06. 20:30 0.0 l/m2 in 1 Std. -
Mi, 16.06. 20:00 0.0 l/m2 in 1 Std. -
Mi, 16.06. 19:30 0.0 l/m2 in 1 Std. -
Mi, 16.06. 19:00 0.0 l/m2 in 1 Std. -
Ortszeit Stärke Spitze Richtung
km/h Bft. km/h Grad Sektor
Mi, 16.06. 20:00 13 3 26 60° NO
Mi, 16.06. 14:00 13 3 26 100° O
Mi, 16.06. 8:00 4 1 11 50° NO
Mi, 16.06. 2:00 7 2 22 60° NO
Di, 15.06. 20:00 9 2 26 40° NO
Di, 15.06. 14:00 11 2 22 40° NO
Di, 15.06. 8:00 9 2 17 210° SW
Di, 15.06. 2:00 13 3 15 190° S
Ortszeit Stärke Spitze Richtung
km/h Bft. km/h Grad Sektor
Mi, 16.06. 22:00 15 3 22 80° O
Mi, 16.06. 21:50 15 3 - 80° O
Mi, 16.06. 21:40 14 3 - 80° O
Mi, 16.06. 21:30 13 3 22 70° O
Mi, 16.06. 21:20 13 3 - 70° O
Mi, 16.06. 21:10 13 3 - 70° O
Mi, 16.06. 21:00 13 3 20 70° O
Mi, 16.06. 20:30 13 3 20 70° O
Mi, 16.06. 20:00 13 3 20 60° NO
Mi, 16.06. 19:30 13 3 20 60° NO
Mi, 16.06. 19:00 13 3 26 70° O
Ortszeit Untergrenze Bedeckung Gattung
total tief tief mittel hoch
Mi, 16.06. 20:00 - 0/8 0/8 - - -
Mi, 16.06. 14:00 9000 m 7/8 0/8 - - -
Mi, 16.06. 8:00 1500 m 7/8 1/8 - - -
Mi, 16.06. 2:00 8100 m 8/8 0/8 - - -
Di, 15.06. 20:00 1800 m 7/8 7/8 - - -
Di, 15.06. 14:00 6600 m 8/8 7/8 - - -
Di, 15.06. 8:00 9000 m 8/8 0/8 - - -
Di, 15.06. 2:00 10500 m 8/8 0/8 - - -
Ortszeit Bedeckungsgrad in Achtel und Wolkenuntergrenze
Mi, 16.06. 22:00 1(10500m)
Mi, 16.06. 21:50 1(10500m)
Mi, 16.06. 21:40 1(10500m)
Mi, 16.06. 21:30 1(12000m) 3(12000m)
Mi, 16.06. 21:20 1(12000m)
Mi, 16.06. 21:10 3(12000m)
Mi, 16.06. 21:00 keine Wolken
Mi, 16.06. 20:30 2(12000m)
Mi, 16.06. 20:00 keine Wolken
Mi, 16.06. 19:30 keine Wolken
Mi, 16.06. 19:00 5(10500m)
Ortszeit Luftdruck NN (hPa) Tendenz (hPa in 3 Std.)
Mi, 16.06. 20:00 1014 - 0,9
Mi, 16.06. 14:00 1016 - 0,7
Mi, 16.06. 8:00 1018 - 0,1
Mi, 16.06. 2:00 1019 - 0,4
Di, 15.06. 20:00 1018 - 0,2
Di, 15.06. 14:00 1018 - 0,4
Di, 15.06. 8:00 1019 + 0,6
Di, 15.06. 2:00 1019 - 0,7
Ortszeit Luftdruck NN (hPa) Tendenz (hPa in 3 Std.)
Mi, 16.06. 22:00 1014 0,0
Mi, 16.06. 21:50 1014 keine Meldung
Mi, 16.06. 21:40 1014 keine Meldung
Mi, 16.06. 21:30 1014 - 0,3
Mi, 16.06. 21:20 1014 keine Meldung
Mi, 16.06. 21:10 1014 keine Meldung
Mi, 16.06. 21:00 1014 - 0,4
Mi, 16.06. 20:30 1014 - 0,6
Mi, 16.06. 20:00 1014 - 0,9
Mi, 16.06. 19:30 1014 - 0,9
Mi, 16.06. 19:00 1014 - 1,0
Ortszeit Schneehöhe (cm)
Mi, 16.06. 20:00 -
Mi, 16.06. 14:00 -
Mi, 16.06. 8:00 -
Mi, 16.06. 2:00 -
Di, 15.06. 20:00 -
Di, 15.06. 14:00 -
Di, 15.06. 8:00 -
Di, 15.06. 2:00 -
Ortszeit Schneehöhe (cm)
Mi, 16.06. 22:00 -
Mi, 16.06. 21:50 -
Mi, 16.06. 21:40 -
Mi, 16.06. 21:30 -
Mi, 16.06. 21:20 -
Mi, 16.06. 21:10 -
Mi, 16.06. 21:00 -
Mi, 16.06. 20:30 -
Mi, 16.06. 20:00 -
Mi, 16.06. 19:30 -
Mi, 16.06. 19:00 -
Link zu dieser Seite / Seite empfehlen

Das Wetter in ...